Time;durP1;ratioP1;P1;durP2;ratioP2;P2;SDS_P1;SDS_P2;PMS_P1;PMS_P2;Temp;Humidity;BMP_temperature;BMP_pressure;BME280_temperature;BME280_humidity;BME280_pressure;Samples;Min_cycle;Max_cycle;Signal;HPM_P1;HPM_P2
2023/12/12 00:00:57;;;;;;;42.53;7.40;;;8.10;99.90;;;;;;5077048;28;20249;-56
2023/12/12 00:03:25;;;;;;;48.93;8.03;;;8.20;99.90;;;;;;5084864;28;20254;-56
2023/12/12 00:05:55;;;;;;;44.67;6.83;;;8.10;99.90;;;;;;5083876;28;20226;-56
2023/12/12 00:08:23;;;;;;;35.67;6.43;;;8.10;99.90;;;;;;5085285;28;20261;-56
2023/12/12 00:10:51;;;;;;;42.90;7.00;;;8.10;99.90;;;;;;5085928;28;20222;-56
2023/12/12 00:13:20;;;;;;;41.33;7.17;;;8.10;99.90;;;;;;5083649;28;20226;-56
2023/12/12 00:15:48;;;;;;;39.10;6.90;;;8.10;99.90;;;;;;5085072;28;20227;-56
2023/12/12 00:18:17;;;;;;;41.90;7.10;;;8.10;99.90;;;;;;5079595;28;20255;-54
2023/12/12 00:20:46;;;;;;;43.07;7.33;;;8.10;99.90;;;;;;5079210;28;20211;-56
2023/12/12 00:23:15;;;;;;;45.77;7.23;;;8.10;99.90;;;;;;5083578;28;20230;-55
2023/12/12 00:25:44;;;;;;;37.27;6.63;;;8.10;99.90;;;;;;5083920;28;20194;-56
2023/12/12 00:28:12;;;;;;;41.97;7.17;;;8.00;99.90;;;;;;5078297;28;20227;-56
2023/12/12 00:30:40;;;;;;;34.83;6.87;;;8.00;99.90;;;;;;5081791;28;20277;-55
2023/12/12 00:33:08;;;;;;;32.67;6.53;;;7.90;99.90;;;;;;5078771;28;20572;-56
2023/12/12 00:35:37;;;;;;;48.50;7.03;;;7.90;99.90;;;;;;5082520;27;20227;-56
2023/12/12 00:38:05;;;;;;;38.87;6.77;;;7.90;99.90;;;;;;5079784;28;20527;-57
2023/12/12 00:40:34;;;;;;;30.43;6.60;;;7.90;99.90;;;;;;5077824;28;20187;-55
2023/12/12 00:43:03;;;;;;;45.00;7.63;;;8.00;99.90;;;;;;5065520;28;20224;-54
2023/12/12 00:45:31;;;;;;;34.60;6.93;;;8.00;99.90;;;;;;5063454;28;20247;-56
2023/12/12 00:47:59;;;;;;;44.70;6.63;;;8.00;99.90;;;;;;5069614;28;20223;-54
2023/12/12 00:50:28;;;;;;;44.37;7.27;;;8.10;99.90;;;;;;5068788;28;20274;-57
2023/12/12 00:52:56;;;;;;;31.50;7.23;;;8.10;99.90;;;;;;5068092;28;20188;-55
2023/12/12 00:55:24;;;;;;;37.87;6.90;;;8.20;99.90;;;;;;5069371;28;20208;-56
2023/12/12 00:57:53;;;;;;;38.57;6.57;;;8.20;99.90;;;;;;5068598;28;20234;-56
2023/12/12 01:00:22;;;;;;;53.43;7.87;;;8.20;99.90;;;;;;5067341;28;20215;-55
2023/12/12 01:02:50;;;;;;;30.40;7.03;;;8.20;99.90;;;;;;5070557;28;20216;-54
2023/12/12 01:05:18;;;;;;;49.17;7.47;;;8.30;99.90;;;;;;5070030;28;20234;-56
2023/12/12 01:07:47;;;;;;;43.27;7.67;;;8.30;99.90;;;;;;5065700;28;20234;-56
2023/12/12 01:10:15;;;;;;;31.87;6.73;;;8.30;99.90;;;;;;5068947;28;20216;-56
2023/12/12 01:12:43;;;;;;;44.37;8.10;;;8.30;99.90;;;;;;5066911;28;20258;-57
2023/12/12 01:15:13;;;;;;;49.97;7.63;;;8.30;99.90;;;;;;5071546;28;20216;-56
2023/12/12 01:17:41;;;;;;;35.63;7.67;;;8.40;99.90;;;;;;5065180;28;20240;-52
2023/12/12 01:20:10;;;;;;;41.87;7.23;;;8.40;99.90;;;;;;5061656;28;20215;-55
2023/12/12 01:22:38;;;;;;;41.40;7.37;;;8.40;99.90;;;;;;5065560;28;20188;-54
2023/12/12 01:25:09;;;;;;;49.70;7.57;;;8.40;99.90;;;;;;5061908;28;20211;-56
2023/12/12 01:27:37;;;;;;;46.50;7.97;;;8.40;99.90;;;;;;5066159;28;20582;-54
2023/12/12 01:30:06;;;;;;;41.87;7.50;;;8.50;99.90;;;;;;5067575;28;20702;-54
2023/12/12 01:32:36;;;;;;;47.10;7.63;;;8.50;99.90;;;;;;5063770;28;20219;-55
2023/12/12 01:35:04;;;;;;;34.60;6.83;;;8.60;99.90;;;;;;5068286;28;20191;-56
2023/12/12 01:37:33;;;;;;;43.93;7.90;;;8.60;99.90;;;;;;5065689;28;20192;-56
2023/12/12 01:40:01;;;;;;;35.30;6.67;;;8.60;99.90;;;;;;5064927;28;20220;-55
2023/12/12 01:42:30;;;;;;;45.97;7.63;;;8.60;99.90;;;;;;5067831;28;20306;-56
2023/12/12 01:44:58;;;;;;;42.03;7.63;;;8.60;99.90;;;;;;5068150;28;20217;-54
2023/12/12 01:47:27;;;;;;;34.13;6.60;;;8.60;99.90;;;;;;5063932;28;20223;-55
2023/12/12 01:49:58;;;;;;;31.87;7.37;;;8.60;99.90;;;;;;5064562;28;20196;-54
2023/12/12 01:52:27;;;;;;;41.67;7.27;;;8.60;99.90;;;;;;5068474;28;20261;-55
2023/12/12 01:54:56;;;;;;;38.80;7.47;;;8.50;99.90;;;;;;5063607;28;20571;-55
2023/12/12 01:57:25;;;;;;;30.13;7.47;;;8.40;99.90;;;;;;5068594;28;20674;-56
2023/12/12 01:59:54;;;;;;;37.80;7.10;;;8.40;99.90;;;;;;5068816;28;20223;-55
2023/12/12 02:02:23;;;;;;;30.40;6.83;;;8.40;99.90;;;;;;5064663;28;20212;-56
2023/12/12 02:04:51;;;;;;;39.27;6.60;;;8.30;99.90;;;;;;5068153;28;20200;-54
2023/12/12 02:07:23;;;;;;;39.53;7.00;;;8.20;99.90;;;;;;5062692;28;20299;-54
2023/12/12 02:09:53;;;;;;;33.37;6.57;;;8.30;99.90;;;;;;5064217;28;20215;-55
2023/12/12 02:12:22;;;;;;;35.63;7.60;;;8.20;99.90;;;;;;5063116;28;20315;-53
2023/12/12 02:14:50;;;;;;;41.10;6.57;;;8.30;99.90;;;;;;5081477;28;20582;-55
2023/12/12 02:17:18;;;;;;;36.80;6.03;;;8.30;99.90;;;;;;5069661;28;20704;-56
2023/12/12 02:19:47;;;;;;;37.17;6.27;;;8.30;99.90;;;;;;5062560;28;20192;-54
2023/12/12 02:22:16;;;;;;;37.03;7.60;;;8.30;99.90;;;;;;5067437;28;20243;-54
2023/12/12 02:24:44;;;;;;;35.20;6.70;;;8.30;99.90;;;;;;5063563;28;20234;-53
2023/12/12 02:27:13;;;;;;;40.77;6.90;;;8.30;99.90;;;;;;5064607;28;20231;-56
2023/12/12 02:29:41;;;;;;;33.97;6.77;;;8.30;99.90;;;;;;5065614;28;20601;-56
2023/12/12 02:32:09;;;;;;;35.40;5.93;;;8.30;99.90;;;;;;5064633;28;20222;-54
2023/12/12 02:34:37;;;;;;;27.67;6.43;;;8.40;99.90;;;;;;5059621;28;20200;-55
2023/12/12 02:37:06;;;;;;;44.93;6.87;;;8.40;99.90;;;;;;5061298;28;20220;-53
2023/12/12 02:39:35;;;;;;;34.67;6.77;;;8.40;99.90;;;;;;5067646;28;20213;-55
2023/12/12 02:42:04;;;;;;;41.60;6.87;;;8.40;99.90;;;;;;5059783;28;20222;-55
2023/12/12 02:44:32;;;;;;;39.17;6.63;;;8.40;99.90;;;;;;5064466;28;20227;-55
2023/12/12 02:47:01;;;;;;;35.70;6.63;;;8.40;99.90;;;;;;5062665;28;20196;-56
2023/12/12 02:49:29;;;;;;;35.57;6.77;;;8.40;99.90;;;;;;5064101;28;20200;-54
2023/12/12 02:51:58;;;;;;;34.63;6.37;;;8.40;99.90;;;;;;5065617;28;20238;-56
2023/12/12 02:54:26;;;;;;;42.13;6.40;;;8.40;99.90;;;;;;5065018;28;21564;-54
2023/12/12 02:56:56;;;;;;;48.00;6.30;;;8.40;99.90;;;;;;5066259;28;20721;-55
2023/12/12 02:59:24;;;;;;;36.53;6.13;;;8.40;99.90;;;;;;5069475;28;20223;-54
2023/12/12 03:01:53;;;;;;;31.90;6.10;;;8.40;99.90;;;;;;5065917;28;20192;-55
2023/12/12 03:04:22;;;;;;;29.97;5.87;;;8.40;99.90;;;;;;5068953;28;20246;-56
2023/12/12 03:06:51;;;;;;;40.63;6.20;;;8.40;99.90;;;;;;5064826;28;20266;-55
2023/12/12 03:09:19;;;;;;;24.37;5.97;;;8.40;99.90;;;;;;5061964;28;20220;-56
2023/12/12 03:11:47;;;;;;;27.67;6.07;;;8.40;99.90;;;;;;5067346;28;20278;-54
2023/12/12 03:14:17;;;;;;;30.40;6.77;;;8.40;99.90;;;;;;5067649;28;20227;-57
2023/12/12 03:16:45;;;;;;;38.73;6.47;;;8.30;99.90;;;;;;5065571;28;20184;-55
2023/12/12 03:19:13;;;;;;;27.27;6.20;;;8.30;99.90;;;;;;5067360;28;20223;-56
2023/12/12 03:21:42;;;;;;;42.77;6.53;;;8.20;99.90;;;;;;5064430;28;20307;-57
2023/12/12 03:24:10;;;;;;;35.90;6.27;;;8.10;99.90;;;;;;5062941;28;20223;-56
2023/12/12 03:26:37;;;;;;;33.50;6.10;;;8.10;99.90;;;;;;5065008;28;20247;-56
2023/12/12 03:29:05;;;;;;;33.27;6.37;;;8.00;99.90;;;;;;5062491;28;20203;-57
2023/12/12 03:31:35;;;;;;;38.77;6.37;;;7.90;99.90;;;;;;5062763;28;20209;-56
2023/12/12 03:34:03;;;;;;;32.10;5.90;;;7.90;99.90;;;;;;5066002;28;20242;-57
2023/12/12 03:36:32;;;;;;;32.23;5.83;;;7.80;99.90;;;;;;5059651;28;20296;-56
2023/12/12 03:39:00;;;;;;;35.50;5.93;;;7.80;99.90;;;;;;5060373;28;20566;-53
2023/12/12 03:41:29;;;;;;;25.70;5.70;;;7.70;99.90;;;;;;5064910;28;20729;-56
2023/12/12 03:43:57;;;;;;;28.60;5.43;;;7.70;99.90;;;;;;5064117;28;20188;-56
2023/12/12 03:46:26;;;;;;;33.80;6.30;;;7.60;99.90;;;;;;5062920;28;20553;-55
2023/12/12 03:48:55;;;;;;;37.73;6.13;;;7.70;99.90;;;;;;5067350;28;20223;-53
2023/12/12 03:51:24;;;;;;;32.40;6.17;;;7.70;99.90;;;;;;5062384;28;20220;-56
2023/12/12 03:53:52;;;;;;;39.13;5.97;;;7.70;99.90;;;;;;5064806;28;20227;-56
2023/12/12 03:56:20;;;;;;;38.40;6.47;;;7.70;99.90;;;;;;5060328;28;20220;-57
2023/12/12 03:58:48;;;;;;;31.47;7.17;;;7.70;99.90;;;;;;5066278;28;20551;-54
2023/12/12 04:01:16;;;;;;;33.00;6.30;;;7.80;99.90;;;;;;5065099;28;20218;-57
2023/12/12 04:03:45;;;;;;;42.60;6.50;;;7.80;99.90;;;;;;5074812;28;20247;-54
2023/12/12 04:06:15;;;;;;;41.40;8.10;;;7.90;99.90;;;;;;5065177;28;20215;-56
2023/12/12 04:08:43;;;;;;;36.40;6.33;;;8.00;99.90;;;;;;5066174;28;23288;-56
2023/12/12 04:11:11;;;;;;;37.77;7.47;;;8.00;99.90;;;;;;5066831;28;20188;-56
2023/12/12 04:13:39;;;;;;;37.83;6.97;;;8.10;99.90;;;;;;5062855;28;20211;-57
2023/12/12 04:16:08;;;;;;;38.17;6.53;;;8.10;99.90;;;;;;5065711;28;20236;-56
2023/12/12 04:18:36;;;;;;;40.63;6.60;;;8.20;99.90;;;;;;5065237;28;20222;-56
2023/12/12 04:21:06;;;;;;;43.47;7.23;;;8.20;99.90;;;;;;5070831;28;20327;-56
2023/12/12 04:23:38;;;;;;;35.87;7.17;;;8.20;99.90;;;;;;5064702;28;20238;-56
2023/12/12 04:26:07;;;;;;;35.90;7.00;;;8.30;99.90;;;;;;5068328;28;20193;-56
2023/12/12 04:28:35;;;;;;;29.80;7.17;;;8.30;99.90;;;;;;5070480;28;20292;-56
2023/12/12 04:31:04;;;;;;;34.77;7.40;;;8.30;99.90;;;;;;5067514;28;20225;-56
2023/12/12 04:33:32;;;;;;;40.97;7.57;;;8.30;99.90;;;;;;5070745;28;20227;-56
2023/12/12 04:36:01;;;;;;;31.83;7.23;;;8.30;99.90;;;;;;5063955;28;20224;-55
2023/12/12 04:38:29;;;;;;;31.53;7.23;;;8.40;99.90;;;;;;5061738;28;20310;-54
2023/12/12 04:41:01;;;;;;;28.97;7.50;;;8.40;99.90;;;;;;5066189;28;20570;-57
2023/12/12 04:43:30;;;;;;;43.30;8.00;;;8.40;99.90;;;;;;5066816;28;20196;-56
2023/12/12 04:45:58;;;;;;;39.00;6.80;;;8.40;99.90;;;;;;5067398;28;20243;-54
2023/12/12 04:48:26;;;;;;;34.63;7.87;;;8.40;99.90;;;;;;5068682;28;20215;-55
2023/12/12 04:50:55;;;;;;;40.33;7.23;;;8.50;99.90;;;;;;5069540;28;20224;-56
2023/12/12 04:53:24;;;;;;;34.80;7.73;;;8.50;99.90;;;;;;5064483;28;20274;-56
2023/12/12 04:55:52;;;;;;;37.43;7.97;;;8.50;99.90;;;;;;5068870;28;20192;-54
2023/12/12 04:58:21;;;;;;;39.73;7.93;;;8.50;99.90;;;;;;5072340;28;20188;-56
2023/12/12 05:00:50;;;;;;;32.47;8.43;;;8.50;99.90;;;;;;5066160;28;20350;-56
2023/12/12 05:03:18;;;;;;;36.10;8.67;;;8.50;99.90;;;;;;5065914;28;20220;-57
2023/12/12 05:05:47;;;;;;;36.47;8.63;;;8.50;99.90;;;;;;5069630;28;20612;-56
2023/12/12 05:08:15;;;;;;;41.47;9.23;;;8.50;99.90;;;;;;5064411;28;20798;-56
2023/12/12 05:10:44;;;;;;;38.63;9.63;;;8.50;99.90;;;;;;5065122;28;20946;-56
2023/12/12 05:13:12;;;;;;;27.47;7.93;;;8.50;99.90;;;;;;5070324;28;20219;-56
2023/12/12 05:15:42;;;;;;;33.27;8.00;;;8.50;99.90;;;;;;5064724;28;20220;-54
2023/12/12 05:18:10;;;;;;;30.57;7.83;;;8.50;99.90;;;;;;5065154;28;20229;-55
2023/12/12 05:20:39;;;;;;;24.80;7.30;;;8.50;99.90;;;;;;5068116;28;20223;-55
2023/12/12 05:23:07;;;;;;;34.30;8.20;;;8.50;99.90;;;;;;5067785;28;20193;-56
2023/12/12 05:25:36;;;;;;;31.73;8.23;;;8.50;99.90;;;;;;5070694;28;20195;-57
2023/12/12 05:28:04;;;;;;;23.00;7.63;;;8.40;99.90;;;;;;5065708;28;20229;-56
2023/12/12 05:30:32;;;;;;;32.47;8.77;;;8.40;99.90;;;;;;5068342;28;20617;-54
2023/12/12 05:33:02;;;;;;;31.90;8.57;;;8.40;99.90;;;;;;5067031;28;20849;-56
2023/12/12 05:35:31;;;;;;;32.30;8.20;;;8.50;99.90;;;;;;5066156;28;20227;-56
2023/12/12 05:37:59;;;;;;;34.87;9.23;;;8.50;99.90;;;;;;5070307;28;20277;-56
2023/12/12 05:40:27;;;;;;;30.00;9.87;;;8.50;99.90;;;;;;5062709;28;20207;-55
2023/12/12 05:42:56;;;;;;;39.77;10.83;;;8.60;99.90;;;;;;5066711;28;20216;-57
2023/12/12 05:45:24;;;;;;;28.47;10.20;;;8.60;99.90;;;;;;5066833;28;20269;-57
2023/12/12 05:47:53;;;;;;;43.30;10.67;;;8.60;99.90;;;;;;5066156;28;20207;-57
2023/12/12 05:50:23;;;;;;;37.77;9.67;;;8.60;99.90;;;;;;5067486;28;20586;-56
2023/12/12 05:52:51;;;;;;;34.77;9.60;;;8.60;99.90;;;;;;5066305;28;20208;-57
2023/12/12 05:55:20;;;;;;;37.83;8.93;;;8.60;99.90;;;;;;5070044;28;20231;-56
2023/12/12 05:57:49;;;;;;;43.30;9.70;;;8.50;99.90;;;;;;5070402;28;20646;-54
2023/12/12 06:00:18;;;;;;;26.57;8.27;;;8.50;99.90;;;;;;5066561;28;20650;-57
2023/12/12 06:02:48;;;;;;;35.47;9.20;;;8.50;99.90;;;;;;5066571;28;20216;-55
2023/12/12 06:05:16;;;;;;;36.63;9.17;;;8.50;99.90;;;;;;5064685;28;20232;-56
2023/12/12 06:07:46;;;;;;;30.20;8.60;;;8.60;99.90;;;;;;5064109;28;20349;-53
2023/12/12 06:10:18;;;;;;;27.97;8.47;;;8.60;99.90;;;;;;5068738;28;20592;-55
2023/12/12 06:12:49;;;;;;;30.83;9.50;;;8.60;99.90;;;;;;5067225;28;20261;-54
2023/12/12 06:15:17;;;;;;;36.67;8.90;;;8.60;99.90;;;;;;5060671;28;20216;-56
2023/12/12 06:17:45;;;;;;;27.97;8.23;;;8.60;99.90;;;;;;5064392;28;20224;-56
2023/12/12 06:20:13;;;;;;;30.47;8.80;;;8.60;99.90;;;;;;5065860;28;20227;-56
2023/12/12 06:22:42;;;;;;;24.03;8.53;;;8.60;99.90;;;;;;5062826;28;20196;-56
2023/12/12 06:25:11;;;;;;;27.80;8.43;;;8.60;99.90;;;;;;5062150;28;20643;-56
2023/12/12 06:27:39;;;;;;;24.70;8.33;;;8.70;99.90;;;;;;5065981;28;20255;-57
2023/12/12 06:30:09;;;;;;;27.83;8.73;;;8.60;99.90;;;;;;5063156;28;20228;-56
2023/12/12 06:32:37;;;;;;;27.47;8.17;;;8.70;99.90;;;;;;5064831;28;20591;-55
2023/12/12 06:35:06;;;;;;;28.50;8.37;;;8.70;99.90;;;;;;5066915;28;20200;-57
2023/12/12 06:37:35;;;;;;;33.83;7.90;;;8.70;99.90;;;;;;5062470;28;20200;-56
2023/12/12 06:40:04;;;;;;;35.50;9.53;;;8.70;99.90;;;;;;5063930;28;20228;-56
2023/12/12 06:42:35;;;;;;;27.73;8.43;;;8.70;99.90;;;;;;5064616;28;20221;-55
2023/12/12 06:45:04;;;;;;;27.80;8.93;;;8.70;99.90;;;;;;5066752;28;20247;-57
2023/12/12 06:47:33;;;;;;;28.43;9.40;;;8.70;99.90;;;;;;5066016;28;20298;-56
2023/12/12 06:50:03;;;;;;;26.90;9.27;;;8.70;99.90;;;;;;5065835;28;20258;-57
2023/12/12 06:52:31;;;;;;;21.77;8.93;;;8.60;99.90;;;;;;5059090;28;20196;-56
2023/12/12 06:55:00;;;;;;;31.37;9.50;;;8.70;99.90;;;;;;5069479;28;20694;-55
2023/12/12 06:57:28;;;;;;;23.47;9.13;;;8.70;99.90;;;;;;5068879;28;20220;-56
2023/12/12 06:59:58;;;;;;;26.00;9.20;;;8.70;99.90;;;;;;5058768;28;20310;-56
2023/12/12 07:02:27;;;;;;;29.10;9.33;;;8.70;99.90;;;;;;5061453;28;20224;-55
2023/12/12 07:05:15;;;;;;;30.60;9.60;;;8.80;99.90;;;;;;5060415;28;20230;-57
2023/12/12 07:07:43;;;;;;;27.27;9.20;;;8.80;99.90;;;;;;5093546;22;20701;-55
2023/12/12 07:10:12;;;;;;;25.90;9.90;;;8.80;99.90;;;;;;5041629;28;20247;-57
2023/12/12 07:12:40;;;;;;;23.27;9.83;;;8.90;99.90;;;;;;5043069;28;20258;-56
2023/12/12 07:15:28;;;;;;;27.40;10.87;;;8.90;99.90;;;;;;5045838;28;20294;-54
2023/12/12 07:17:56;;;;;;;25.27;11.37;;;9.00;99.90;;;;;;5038050;28;20591;-54
2023/12/12 07:20:25;;;;;;;33.03;11.63;;;9.10;99.90;;;;;;5021090;28;20569;-55
2023/12/12 07:22:53;;;;;;;27.07;12.70;;;9.10;99.90;;;;;;5045942;28;20660;-56
2023/12/12 07:25:21;;;;;;;30.87;12.57;;;9.20;99.90;;;;;;5022677;28;20201;-54
2023/12/12 07:27:50;;;;;;;30.77;12.50;;;9.20;99.90;;;;;;5024699;28;20256;-56
2023/12/12 07:30:18;;;;;;;36.20;13.70;;;9.20;99.90;;;;;;5027771;28;20314;-55
2023/12/12 07:32:49;;;;;;;30.90;12.00;;;9.20;99.90;;;;;;5023312;28;20225;-54
2023/12/12 07:35:20;;;;;;;29.00;13.23;;;9.20;99.90;;;;;;5023086;28;20819;-54
2023/12/12 07:37:48;;;;;;;28.73;12.63;;;9.30;99.90;;;;;;5042693;28;20284;-57
2023/12/12 07:40:17;;;;;;;34.27;14.33;;;9.30;99.90;;;;;;5020651;28;20307;-56
2023/12/12 07:42:46;;;;;;;35.53;14.83;;;9.30;99.90;;;;;;5029861;28;20705;-54
2023/12/12 07:45:15;;;;;;;36.33;15.37;;;9.30;99.90;;;;;;5034491;28;20233;-55
2023/12/12 07:47:44;;;;;;;30.67;14.60;;;9.30;99.90;;;;;;5028441;28;20233;-56
2023/12/12 07:50:17;;;;;;;33.20;14.50;;;9.30;99.90;;;;;;5024169;28;20245;-55
2023/12/12 07:52:47;;;;;;;38.27;15.13;;;9.40;99.90;;;;;;5026035;28;20574;-55
2023/12/12 07:55:19;;;;;;;37.40;16.43;;;9.40;99.90;;;;;;5051855;28;20216;-54
2023/12/12 07:57:49;;;;;;;39.57;15.63;;;9.40;99.90;;;;;;5028912;28;20213;-55
2023/12/12 08:00:19;;;;;;;38.20;15.60;;;9.40;99.90;;;;;;5027711;28;20225;-55
2023/12/12 08:02:47;;;;;;;32.50;14.80;;;9.50;99.90;;;;;;5023328;28;20213;-56
2023/12/12 08:05:17;;;;;;;34.33;14.80;;;9.50;99.90;;;;;;5033992;28;20217;-56
2023/12/12 08:07:45;;;;;;;27.60;14.37;;;9.50;99.90;;;;;;5037292;28;20233;-56
2023/12/12 08:10:15;;;;;;;35.97;15.47;;;9.50;99.90;;;;;;5065694;28;20933;-56
2023/12/12 08:12:44;;;;;;;31.93;15.60;;;9.60;99.90;;;;;;5066052;28;20212;-55
2023/12/12 08:15:13;;;;;;;30.60;14.83;;;9.60;99.90;;;;;;5055891;28;20254;-57
2023/12/12 08:17:41;;;;;;;34.60;15.93;;;9.60;99.90;;;;;;5035216;28;20217;-55
2023/12/12 08:20:11;;;;;;;34.93;15.53;;;9.60;99.90;;;;;;5048736;28;20242;-54
2023/12/12 08:22:41;;;;;;;27.67;14.47;;;9.60;99.90;;;;;;5044834;28;20707;-57
2023/12/12 08:25:10;;;;;;;36.23;14.90;;;9.60;99.90;;;;;;5045218;28;20221;-55
2023/12/12 08:27:38;;;;;;;32.47;14.30;;;9.70;99.90;;;;;;5058747;28;20254;-55
2023/12/12 08:30:08;;;;;;;30.47;14.63;;;9.70;99.90;;;;;;5067575;28;20219;-57
2023/12/12 08:32:37;;;;;;;28.93;14.80;;;9.70;99.90;;;;;;5063323;28;20220;-57
2023/12/12 08:35:07;;;;;;;29.63;13.73;;;9.80;99.90;;;;;;5045518;28;20216;-57
2023/12/12 08:37:35;;;;;;;26.20;13.30;;;9.80;99.90;;;;;;5052855;28;20188;-56
2023/12/12 08:40:06;;;;;;;25.20;13.10;;;9.80;99.90;;;;;;5047671;28;20225;-56
2023/12/12 08:42:36;;;;;;;25.63;13.00;;;9.80;99.90;;;;;;5040117;28;20255;-57
2023/12/12 08:45:05;;;;;;;25.53;12.33;;;9.80;99.90;;;;;;5048208;28;20229;-57
2023/12/12 08:47:33;;;;;;;21.10;12.37;;;9.80;99.90;;;;;;5054384;28;20227;-56
2023/12/12 08:50:03;;;;;;;22.80;11.97;;;9.80;99.90;;;;;;5068538;28;20185;-55
2023/12/12 08:52:34;;;;;;;26.40;13.00;;;9.90;99.90;;;;;;5068681;28;20200;-56
2023/12/12 08:55:11;;;;;;;24.17;13.93;;;9.90;99.90;;;;;;5063785;28;20906;-55
2023/12/12 08:57:40;;;;;;;26.77;13.07;;;9.90;99.90;;;;;;5068233;28;20269;-56
2023/12/12 09:00:10;;;;;;;22.50;12.63;;;10.00;99.90;;;;;;5071213;28;20633;-54
2023/12/12 09:02:39;;;;;;;24.60;13.40;;;10.00;99.90;;;;;;5065368;28;20285;-55
2023/12/12 09:05:09;;;;;;;21.37;12.23;;;10.10;99.90;;;;;;5068345;28;20195;-56
2023/12/12 09:07:37;;;;;;;22.73;12.13;;;10.10;99.90;;;;;;5072037;28;20224;-55
2023/12/12 09:10:07;;;;;;;20.77;12.30;;;10.20;99.90;;;;;;5064113;28;20247;-57
2023/12/12 09:12:37;;;;;;;22.03;12.87;;;10.10;99.90;;;;;;5066114;28;20228;-56
2023/12/12 09:15:06;;;;;;;19.67;12.17;;;10.20;99.90;;;;;;5064156;28;21249;-56
2023/12/12 09:17:37;;;;;;;22.83;12.53;;;10.20;99.90;;;;;;5069390;28;20261;-56
2023/12/12 09:20:06;;;;;;;20.77;11.90;;;10.20;99.90;;;;;;5066744;28;20200;-56
2023/12/12 09:22:35;;;;;;;17.07;11.33;;;10.30;99.90;;;;;;5067123;28;20641;-57
2023/12/12 09:25:05;;;;;;;22.87;11.40;;;10.30;99.90;;;;;;5069594;28;20259;-55
2023/12/12 09:27:34;;;;;;;18.60;11.37;;;10.30;99.90;;;;;;5069295;28;20215;-57
2023/12/12 09:30:04;;;;;;;20.13;10.70;;;10.30;99.90;;;;;;5059296;28;20299;-57
2023/12/12 09:32:33;;;;;;;15.47;10.27;;;10.30;99.90;;;;;;5070958;28;20223;-55
2023/12/12 09:35:01;;;;;;;18.27;10.87;;;10.40;99.90;;;;;;5063528;28;20235;-55
2023/12/12 09:37:29;;;;;;;20.03;10.77;;;10.40;99.90;;;;;;5068621;28;20196;-56
2023/12/12 09:39:58;;;;;;;19.47;10.60;;;10.40;99.90;;;;;;5060514;28;20216;-57
2023/12/12 09:42:29;;;;;;;17.97;10.13;;;10.50;99.90;;;;;;5069902;28;20577;-56
2023/12/12 09:45:00;;;;;;;19.87;10.83;;;10.50;99.90;;;;;;5069018;28;20219;-57
2023/12/12 09:47:31;;;;;;;15.90;10.90;;;10.60;99.90;;;;;;5067811;28;20207;-54
2023/12/12 09:50:00;;;;;;;24.20;12.27;;;10.60;99.90;;;;;;5065657;28;20223;-56
2023/12/12 09:52:30;;;;;;;21.63;11.90;;;10.60;99.90;;;;;;5060070;28;20319;-54
2023/12/12 09:55:00;;;;;;;21.00;11.87;;;10.60;99.90;;;;;;5069480;28;20303;-54
2023/12/12 09:57:29;;;;;;;21.43;11.73;;;10.70;99.90;;;;;;5062804;28;20218;-57
2023/12/12 09:59:59;;;;;;;18.40;11.27;;;10.80;99.90;;;;;;5067768;28;20216;-56
2023/12/12 10:02:35;;;;;;;18.67;11.53;;;10.80;99.90;;;;;;5065332;28;20224;-56
2023/12/12 10:05:09;;;;;;;20.17;11.87;;;10.90;99.90;;;;;;5066270;28;20275;-57
2023/12/12 10:07:38;;;;;;;18.03;11.37;;;10.90;99.90;;;;;;5064279;28;20228;-57
2023/12/12 10:10:10;;;;;;;18.57;11.40;;;10.90;99.90;;;;;;5069605;28;20230;-56
2023/12/12 10:12:38;;;;;;;18.63;11.23;;;10.90;99.90;;;;;;5065583;28;20574;-57
2023/12/12 10:15:22;;;;;;;16.00;9.90;;;10.90;99.90;;;;;;5068280;28;20240;-57
2023/12/12 10:17:56;;;;;;;15.23;10.50;;;11.00;99.90;;;;;;5065846;28;20223;-57
2023/12/12 10:20:26;;;;;;;13.97;10.10;;;11.10;99.90;;;;;;5067084;28;20274;-57
2023/12/12 10:22:59;;;;;;;15.67;10.37;;;11.20;99.90;;;;;;5063380;28;20608;-55
2023/12/12 10:25:32;;;;;;;14.47;9.60;;;11.30;99.90;;;;;;5065528;28;20238;-57
2023/12/12 10:28:01;;;;;;;13.90;10.33;;;11.20;99.90;;;;;;5071088;28;20266;-56
2023/12/12 10:30:29;;;;;;;13.77;9.77;;;11.20;99.90;;;;;;5064771;28;20581;-57
2023/12/12 10:32:59;;;;;;;12.30;9.40;;;11.10;99.90;;;;;;5060885;28;20216;-56
2023/12/12 10:35:46;;;;;;;12.00;8.70;;;11.10;99.90;;;;;;5070555;28;20309;-56
2023/12/12 10:38:14;;;;;;;11.97;8.93;;;11.10;99.90;;;;;;5069257;28;20222;-56
2023/12/12 10:40:43;;;;;;;12.37;8.40;;;11.10;99.90;;;;;;5069582;28;20197;-56
2023/12/12 10:43:11;;;;;;;10.90;8.47;;;11.10;99.90;;;;;;5063001;28;20737;-56
2023/12/12 10:45:42;;;;;;;9.87;8.03;;;11.10;99.90;;;;;;5061032;28;20222;-56
2023/12/12 10:48:17;;;;;;;9.20;7.80;;;11.10;99.90;;;;;;5063887;28;20307;-56
2023/12/12 10:50:48;;;;;;;11.57;7.57;;;11.20;99.90;;;;;;5065850;28;20226;-56
2023/12/12 10:53:17;;;;;;;11.10;7.77;;;11.20;99.90;;;;;;5067149;28;20246;-56
2023/12/12 10:55:49;;;;;;;10.30;7.87;;;11.20;99.90;;;;;;5062166;28;20291;-55
2023/12/12 10:58:18;;;;;;;9.50;7.60;;;11.20;99.90;;;;;;5061359;28;20200;-56
2023/12/12 11:00:48;;;;;;;10.63;7.63;;;11.20;99.90;;;;;;5066034;28;20219;-56
2023/12/12 11:03:21;;;;;;;9.30;7.03;;;11.30;99.90;;;;;;5063373;28;20269;-56
2023/12/12 11:05:52;;;;;;;8.13;7.10;;;11.30;99.90;;;;;;5062028;28;20213;-56
2023/12/12 11:08:21;;;;;;;10.37;7.37;;;11.20;99.90;;;;;;5065721;28;21271;-56
2023/12/12 11:10:51;;;;;;;9.50;7.60;;;11.20;99.90;;;;;;5066074;28;20207;-56
2023/12/12 11:13:22;;;;;;;9.87;7.43;;;11.20;99.90;;;;;;5069090;28;20237;-56
2023/12/12 11:15:52;;;;;;;8.87;7.47;;;11.20;99.90;;;;;;5066670;28;20224;-55
2023/12/12 11:18:21;;;;;;;9.20;7.53;;;11.20;99.90;;;;;;5067584;28;20566;-56
2023/12/12 11:20:50;;;;;;;10.13;7.50;;;11.20;99.90;;;;;;5061986;28;20225;-55
2023/12/12 11:23:58;;;;;;;10.17;8.23;;;11.20;99.90;;;;;;5067616;28;20219;-56
2023/12/12 11:26:27;;;;;;;10.13;7.47;;;11.30;99.90;;;;;;5061971;28;20321;-56
2023/12/12 11:28:57;;;;;;;8.73;7.80;;;11.30;99.90;;;;;;5065690;28;20192;-55
2023/12/12 11:31:27;;;;;;;12.77;8.40;;;11.30;99.90;;;;;;5064420;28;20206;-56
2023/12/12 11:34:07;;;;;;;11.40;8.13;;;11.30;99.90;;;;;;5067908;28;20219;-56
2023/12/12 11:36:52;;;;;;;11.00;8.20;;;11.40;99.90;;;;;;5061012;28;20223;-57
2023/12/12 11:39:34;;;;;;;9.80;8.07;;;11.40;99.90;;;;;;5063970;28;20234;-56
2023/12/12 11:42:16;;;;;;;9.83;7.70;;;11.50;99.90;;;;;;5064854;28;20606;-54
2023/12/12 11:44:47;;;;;;;8.30;6.87;;;11.50;99.90;;;;;;5067167;28;20228;-56
2023/12/12 11:47:17;;;;;;;11.53;7.53;;;11.50;99.90;;;;;;5061123;28;20552;-56
2023/12/12 11:49:47;;;;;;;7.80;7.00;;;11.50;99.90;;;;;;5066656;28;20192;-56
2023/12/12 11:52:49;;;;;;;8.17;7.27;;;11.60;99.90;;;;;;5060437;28;21420;-57
2023/12/12 11:55:28;;;;;;;7.80;7.00;;;11.60;99.90;;;;;;5059894;28;20230;-56
2023/12/12 11:58:01;;;;;;;7.70;6.90;;;11.50;99.90;;;;;;5062205;28;20216;-56
2023/12/12 12:00:34;;;;;;;7.30;6.60;;;11.40;99.90;;;;;;5070178;28;20215;-56
2023/12/12 12:03:04;;;;;;;7.90;6.70;;;11.30;99.90;;;;;;5065653;28;20220;-56
2023/12/12 12:05:34;;;;;;;8.43;6.73;;;11.40;99.90;;;;;;5064354;28;20219;-56
2023/12/12 12:08:03;;;;;;;9.40;7.50;;;11.30;99.90;;;;;;5062943;28;20277;-56
2023/12/12 12:10:32;;;;;;;8.50;6.93;;;11.30;99.90;;;;;;5061851;28;20189;-56
2023/12/12 12:13:02;;;;;;;8.07;6.80;;;11.40;99.90;;;;;;5063112;28;20212;-57
2023/12/12 12:15:31;;;;;;;8.67;7.07;;;11.40;99.90;;;;;;5060873;28;20223;-56
2023/12/12 12:17:59;;;;;;;9.43;7.50;;;11.40;99.90;;;;;;5065590;28;20627;-56
2023/12/12 12:20:28;;;;;;;9.30;7.40;;;11.40;99.90;;;;;;5068574;28;20223;-56
2023/12/12 12:22:57;;;;;;;12.53;8.23;;;11.50;99.90;;;;;;5065481;28;20196;-55
2023/12/12 12:25:27;;;;;;;11.83;7.03;;;11.60;99.90;;;;;;5059431;28;20193;-57
2023/12/12 12:27:56;;;;;;;7.77;6.47;;;11.60;99.90;;;;;;5064559;28;20307;-57
2023/12/12 12:30:25;;;;;;;10.77;6.93;;;11.50;99.90;;;;;;5066768;28;20301;-57
2023/12/12 12:33:06;;;;;;;8.10;6.13;;;11.50;99.90;;;;;;5062657;28;20674;-56
2023/12/12 12:35:35;;;;;;;7.70;6.10;;;11.50;99.90;;;;;;5065909;28;20278;-55
2023/12/12 12:38:23;;;;;;;6.93;6.23;;;11.60;99.90;;;;;;5063920;28;20200;-55
2023/12/12 12:40:52;;;;;;;8.07;6.07;;;11.60;99.90;;;;;;5069532;28;20206;-57
2023/12/12 12:43:22;;;;;;;6.70;6.10;;;11.70;99.90;;;;;;5060824;28;20751;-57
2023/12/12 12:45:53;;;;;;;6.70;6.10;;;11.70;99.90;;;;;;5068644;28;20216;-57
2023/12/12 12:48:25;;;;;;;7.00;5.77;;;11.70;99.90;;;;;;5068135;28;20303;-55
2023/12/12 12:50:58;;;;;;;7.17;5.97;;;11.70;99.90;;;;;;5069005;28;20881;-57
2023/12/12 12:53:28;;;;;;;9.03;6.53;;;11.70;99.90;;;;;;5069696;28;20311;-57
2023/12/12 12:55:56;;;;;;;8.60;6.40;;;11.70;99.90;;;;;;5067126;28;20708;-57